createdAt,value
2022-11-10T00:01:38.156Z,11.37
2022-11-10T00:04:24.817Z,11.38
2022-11-10T00:07:10.977Z,11.35
2022-11-10T00:09:57.544Z,11.35
2022-11-10T00:12:43.770Z,11.33
2022-11-10T00:15:48.561Z,11.38
2022-11-10T00:18:35.674Z,11.45
2022-11-10T00:21:21.925Z,11.48
2022-11-10T00:24:08.721Z,11.53
2022-11-10T00:26:55.791Z,11.56
2022-11-10T00:29:42.671Z,11.58
2022-11-10T00:32:29.264Z,11.59
2022-11-10T00:35:15.620Z,11.59
2022-11-10T00:38:02.073Z,11.63
2022-11-10T00:40:48.720Z,11.67
2022-11-10T00:43:35.332Z,11.70
2022-11-10T00:46:21.821Z,11.74
2022-11-10T00:49:08.082Z,11.76
2022-11-10T00:51:54.379Z,11.75
2022-11-10T00:54:41.051Z,11.74
2022-11-10T00:57:27.336Z,11.73
2022-11-10T01:00:13.694Z,11.71
2022-11-10T01:03:02.629Z,11.72
2022-11-10T01:05:49.162Z,11.75
2022-11-10T01:08:36.129Z,11.77
2022-11-10T01:11:27.670Z,11.77
2022-11-10T01:14:14.151Z,11.78
2022-11-10T01:17:00.520Z,11.78
2022-11-10T01:19:47.003Z,11.76
2022-11-10T01:22:33.215Z,11.75
2022-11-10T01:25:20.520Z,11.75
2022-11-10T01:28:06.948Z,11.73
2022-11-10T01:30:58.256Z,11.71
2022-11-10T01:33:45.334Z,11.74
2022-11-10T01:36:31.915Z,11.74
2022-11-10T01:39:18.174Z,11.75
2022-11-10T01:42:04.584Z,11.72
2022-11-10T01:45:24.694Z,11.66
2022-11-10T01:48:15.162Z,11.67
2022-11-10T01:51:10.402Z,11.68
2022-11-10T01:54:00.015Z,11.71
2022-11-10T01:56:50.413Z,11.74
2022-11-10T01:59:40.590Z,11.77
2022-11-10T02:02:38.343Z,11.79
2022-11-10T02:05:25.678Z,11.78
2022-11-10T02:08:14.650Z,11.78
2022-11-10T02:11:01.234Z,11.76
2022-11-10T02:13:47.853Z,11.75
2022-11-10T02:16:34.266Z,11.75
2022-11-10T02:19:24.158Z,11.76
2022-11-10T02:22:10.369Z,11.77
2022-11-10T02:24:57.430Z,11.76
2022-11-10T02:27:44.093Z,11.71
2022-11-10T02:30:30.993Z,11.62
2022-11-10T02:33:20.654Z,11.61
2022-11-10T02:36:07.446Z,11.64
2022-11-10T02:38:53.964Z,11.66
2022-11-10T02:41:40.342Z,11.68
2022-11-10T02:44:26.567Z,11.70
2022-11-10T02:47:13.128Z,11.72
2022-11-10T02:49:59.345Z,11.70
2022-11-10T02:52:45.479Z,11.66
2022-11-10T02:55:32.284Z,11.67
2022-11-10T02:58:18.797Z,11.67
2022-11-10T03:01:06.084Z,11.60
2022-11-10T03:03:52.789Z,11.49
2022-11-10T03:06:39.399Z,11.43
2022-11-10T03:09:25.656Z,11.47
2022-11-10T03:12:12.322Z,11.49
2022-11-10T03:14:58.724Z,11.52
2022-11-10T03:17:44.785Z,11.57
2022-11-10T03:20:31.433Z,11.61
2022-11-10T03:23:18.466Z,11.67
2022-11-10T03:26:05.977Z,11.71
2022-11-10T03:28:52.326Z,11.72
2022-11-10T03:31:38.829Z,11.72
2022-11-10T03:34:29.349Z,11.73
2022-11-10T03:37:17.953Z,11.72
2022-11-10T03:40:04.862Z,11.71
2022-11-10T03:42:51.516Z,11.65
2022-11-10T03:45:37.948Z,11.62
2022-11-10T03:48:24.241Z,11.60
2022-11-10T03:51:10.857Z,11.61
2022-11-10T03:53:57.235Z,11.63
2022-11-10T03:56:43.769Z,11.64
2022-11-10T03:59:30.284Z,11.64
2022-11-10T04:02:16.454Z,11.65
2022-11-10T04:05:22.063Z,11.64
2022-11-10T04:08:32.792Z,11.61
2022-11-10T04:11:38.617Z,11.56
2022-11-10T04:14:43.859Z,11.52
2022-11-10T04:17:31.462Z,11.51
2022-11-10T04:20:18.015Z,11.48
2022-11-10T04:23:23.362Z,11.42
2022-11-10T04:26:30.718Z,11.30
2022-11-10T04:29:19.243Z,11.24
2022-11-10T04:32:06.023Z,11.18
2022-11-10T04:34:52.513Z,11.14
2022-11-10T04:37:38.910Z,11.11
2022-11-10T04:40:25.610Z,11.10
2022-11-10T04:43:12.070Z,11.11
2022-11-10T04:45:59.485Z,11.07
2022-11-10T04:48:46.417Z,11.02
2022-11-10T04:51:35.773Z,10.95
2022-11-10T04:54:22.660Z,10.91
2022-11-10T04:57:09.296Z,10.87
2022-11-10T04:59:55.798Z,10.87
2022-11-10T05:02:42.501Z,10.84
2022-11-10T05:05:29.819Z,10.86
2022-11-10T05:08:16.445Z,10.88
2022-11-10T05:11:03.304Z,10.89
2022-11-10T05:13:49.859Z,10.83
2022-11-10T05:16:37.701Z,10.78
2022-11-10T05:19:24.068Z,10.77
2022-11-10T05:22:10.344Z,10.75
2022-11-10T05:24:57.074Z,10.69
2022-11-10T05:27:43.335Z,10.64
2022-11-10T05:30:30.182Z,10.63
2022-11-10T05:33:16.562Z,10.63
2022-11-10T05:36:04.116Z,10.63
2022-11-10T05:38:50.792Z,10.63
2022-11-10T05:41:37.263Z,10.63
2022-11-10T05:44:23.513Z,10.60
2022-11-10T05:47:10.236Z,10.55
2022-11-10T05:49:56.755Z,10.43
2022-11-10T05:52:50.025Z,10.30
2022-11-10T05:55:36.947Z,10.22
2022-11-10T05:58:23.376Z,10.21
2022-11-10T06:01:09.943Z,10.21
2022-11-10T06:03:56.391Z,10.23
2022-11-10T06:06:42.938Z,10.21
2022-11-10T06:09:29.363Z,10.19
2022-11-10T06:12:15.894Z,10.18
2022-11-10T06:15:02.939Z,10.18
2022-11-10T06:17:49.658Z,10.17
2022-11-10T06:20:36.527Z,10.15
2022-11-10T06:23:23.525Z,10.14
2022-11-10T06:26:10.552Z,10.13
2022-11-10T06:28:57.826Z,10.13
2022-11-10T06:31:44.154Z,10.12
2022-11-10T06:34:30.542Z,10.11
2022-11-10T06:37:17.040Z,10.11
2022-11-10T06:40:03.702Z,10.07
2022-11-10T06:42:50.089Z,10.00
2022-11-10T06:45:36.541Z,9.99
2022-11-10T06:48:22.887Z,10.04
2022-11-10T06:51:09.535Z,10.08
2022-11-10T06:53:56.173Z,10.09
2022-11-10T06:56:42.961Z,10.13
2022-11-10T06:59:29.342Z,10.16
2022-11-10T07:02:16.319Z,10.21
2022-11-10T07:05:02.759Z,10.22
2022-11-10T07:07:48.971Z,10.18
2022-11-10T07:10:36.165Z,10.21
2022-11-10T07:13:23.818Z,10.17
2022-11-10T07:16:11.371Z,10.17
2022-11-10T07:18:57.830Z,10.15
2022-11-10T07:21:44.441Z,10.10
2022-11-10T07:24:30.829Z,10.13
2022-11-10T07:27:17.430Z,10.18
2022-11-10T07:30:05.125Z,10.19
2022-11-10T07:32:59.161Z,10.25
2022-11-10T07:35:52.782Z,10.33
2022-11-10T07:38:39.675Z,10.37
2022-11-10T07:41:26.206Z,10.38
2022-11-10T07:44:12.270Z,10.41
2022-11-10T07:46:58.964Z,10.44
2022-11-10T07:49:45.798Z,10.52
2022-11-10T07:52:32.362Z,10.63
2022-11-10T07:55:18.843Z,10.77
2022-11-10T07:58:05.937Z,10.97
2022-11-10T08:00:52.633Z,11.06
2022-11-10T08:03:39.086Z,11.11
2022-11-10T08:06:26.109Z,11.10
2022-11-10T08:09:12.629Z,11.12
2022-11-10T08:11:59.108Z,11.22
2022-11-10T08:14:45.738Z,11.57
2022-11-10T08:17:32.289Z,11.79
2022-11-10T08:20:18.930Z,12.02
2022-11-10T08:23:06.693Z,12.17
2022-11-10T08:25:53.326Z,12.18
2022-11-10T08:28:39.724Z,12.13
2022-11-10T08:31:26.117Z,12.07
2022-11-10T08:34:13.012Z,12.11
2022-11-10T08:36:59.498Z,12.13
2022-11-10T08:39:45.868Z,12.15
2022-11-10T08:42:31.967Z,12.21
2022-11-10T08:45:18.576Z,12.28
2022-11-10T08:48:24.407Z,12.31
2022-11-10T08:51:11.454Z,12.33
2022-11-10T08:53:58.142Z,12.34
2022-11-10T08:56:44.813Z,12.37
2022-11-10T08:59:31.377Z,12.40
2022-11-10T09:02:18.182Z,12.44
2022-11-10T09:05:05.356Z,12.45
2022-11-10T09:07:52.265Z,12.51
2022-11-10T09:10:41.733Z,12.94
2022-11-10T09:13:30.256Z,13.41
2022-11-10T09:16:17.544Z,13.81
2022-11-10T09:19:04.156Z,13.85
2022-11-10T09:21:50.905Z,13.76
2022-11-10T09:24:37.220Z,13.78
2022-11-10T09:27:23.716Z,13.97
2022-11-10T09:30:16.320Z,14.22
2022-11-10T09:33:04.312Z,14.41
2022-11-10T09:35:51.039Z,14.57
2022-11-10T09:38:39.905Z,14.78
2022-11-10T09:41:49.923Z,15.09
2022-11-10T09:44:39.556Z,15.22
2022-11-10T09:47:56.133Z,15.33
2022-11-10T09:50:47.901Z,15.49
2022-11-10T09:53:52.278Z,15.77
2022-11-10T09:56:39.170Z,16.08
2022-11-10T10:00:01.570Z,16.30
2022-11-10T10:03:12.632Z,16.46
2022-11-10T10:06:10.754Z,16.27
2022-11-10T10:09:00.922Z,16.23
2022-11-10T10:12:22.445Z,16.38
2022-11-10T10:15:25.406Z,16.70
2022-11-10T10:18:27.031Z,16.84
2022-11-10T10:21:33.120Z,16.89
2022-11-10T10:24:22.426Z,16.71
2022-11-10T10:27:20.424Z,16.31
2022-11-10T10:30:20.386Z,16.28
2022-11-10T10:33:18.896Z,16.44
2022-11-10T10:36:13.740Z,16.08
2022-11-10T10:39:17.861Z,15.91
2022-11-10T10:42:09.635Z,16.19
2022-11-10T10:45:25.471Z,16.28
2022-11-10T10:48:30.319Z,16.23
2022-11-10T10:51:30.704Z,16.34
2022-11-10T10:54:33.094Z,16.59
2022-11-10T10:57:25.600Z,16.64
2022-11-10T11:00:18.135Z,16.47
2022-11-10T11:03:07.660Z,16.31
2022-11-10T11:06:21.837Z,16.03
2022-11-10T11:09:17.001Z,16.05
2022-11-10T11:12:11.359Z,16.28
2022-11-10T11:15:27.015Z,16.63
2022-11-10T11:18:18.004Z,17.04
2022-11-10T11:21:33.663Z,17.27
2022-11-10T11:24:20.786Z,16.94
2022-11-10T11:27:23.662Z,16.68
2022-11-10T11:30:22.847Z,16.29
2022-11-10T11:33:29.491Z,15.97
2022-11-10T11:36:19.138Z,15.75
2022-11-10T11:39:40.087Z,15.51
2022-11-10T11:42:43.704Z,15.13
2022-11-10T11:46:00.975Z,14.93
2022-11-10T11:49:26.436Z,14.78
2022-11-10T11:52:40.547Z,14.55
2022-11-10T11:55:52.599Z,14.31
2022-11-10T11:58:45.958Z,14.09
2022-11-10T12:01:43.293Z,13.95
2022-11-10T12:04:46.046Z,13.89
2022-11-10T12:07:59.550Z,13.94
2022-11-10T12:11:05.499Z,14.31
2022-11-10T12:14:17.080Z,14.58
2022-11-10T12:17:19.261Z,15.24
2022-11-10T12:20:26.816Z,15.55
2022-11-10T12:23:28.722Z,15.65
2022-11-10T12:26:36.540Z,15.80
2022-11-10T12:29:43.568Z,16.32
2022-11-10T12:36:25.810Z,17.20
2022-11-10T12:39:45.500Z,17.73
2022-11-10T12:42:38.546Z,17.81
2022-11-10T12:45:29.038Z,17.73
2022-11-10T12:48:21.692Z,17.64
2022-11-10T12:51:14.255Z,17.01
2022-11-10T12:54:01.638Z,16.82
2022-11-10T12:57:25.925Z,17.07
2022-11-10T13:01:01.381Z,17.11
2022-11-10T13:04:07.971Z,16.80
2022-11-10T13:07:13.108Z,16.51
2022-11-10T13:10:22.528Z,16.61
2022-11-10T13:13:15.198Z,17.18
2022-11-10T13:16:02.758Z,17.19
2022-11-10T13:18:49.490Z,17.05
2022-11-10T13:22:15.744Z,16.95
2022-11-10T13:25:40.433Z,16.49
2022-11-10T13:28:49.012Z,16.32
2022-11-10T13:31:39.964Z,16.78
2022-11-10T13:34:33.373Z,16.94
2022-11-10T13:37:35.283Z,17.42
2022-11-10T13:40:24.935Z,17.57
2022-11-10T13:43:24.709Z,17.29
2022-11-10T13:46:11.368Z,17.44
2022-11-10T13:49:23.399Z,17.87
2022-11-10T13:52:17.975Z,18.37
2022-11-10T13:55:23.873Z,19.25
2022-11-10T13:58:12.706Z,20.06
2022-11-10T14:01:17.916Z,20.42
2022-11-10T14:04:05.204Z,20.51
2022-11-10T14:06:55.216Z,20.20
2022-11-10T14:09:46.452Z,20.28
2022-11-10T14:12:53.503Z,20.40
2022-11-10T14:15:44.519Z,20.35
2022-11-10T14:18:42.236Z,20.50
2022-11-10T14:21:33.302Z,20.54
2022-11-10T14:24:25.071Z,20.72
2022-11-10T14:27:20.370Z,20.42
2022-11-10T14:30:26.942Z,20.11
2022-11-10T14:33:15.990Z,19.98
2022-11-10T14:36:09.093Z,19.75
2022-11-10T14:38:58.154Z,19.61
2022-11-10T14:41:48.600Z,19.11
2022-11-10T14:44:35.612Z,18.83
2022-11-10T14:47:31.198Z,17.91
2022-11-10T14:50:33.916Z,16.93
2022-11-10T14:53:29.577Z,16.03
2022-11-10T14:56:19.718Z,15.25
2022-11-10T14:59:11.269Z,14.73
2022-11-10T15:02:01.001Z,14.35
2022-11-10T15:04:50.236Z,14.04
2022-11-10T15:07:39.987Z,13.82
2022-11-10T15:10:49.560Z,13.66
2022-11-10T15:13:39.845Z,13.48
2022-11-10T15:16:32.876Z,13.33
2022-11-10T15:25:53.160Z,12.83
2022-11-10T15:28:42.220Z,12.64
2022-11-10T15:31:30.990Z,12.52
2022-11-10T15:34:31.422Z,12.41
2022-11-10T15:37:27.399Z,12.29
2022-11-10T15:40:30.097Z,12.21
2022-11-10T15:43:26.784Z,12.13
2022-11-10T15:46:24.986Z,12.03
2022-11-10T15:49:20.723Z,11.93
2022-11-10T15:52:21.455Z,11.88
2022-11-10T15:55:19.975Z,11.82
2022-11-10T15:58:24.403Z,11.78
2022-11-10T16:01:12.398Z,11.76
2022-11-10T16:03:59.411Z,11.80
2022-11-10T16:06:46.255Z,11.81
2022-11-10T16:09:33.649Z,11.79
2022-11-10T16:12:21.446Z,11.73
2022-11-10T16:15:16.481Z,11.61
2022-11-10T16:18:04.444Z,11.53
2022-11-10T16:20:52.247Z,11.44
2022-11-10T16:23:38.701Z,11.35
2022-11-10T16:26:25.886Z,11.27
2022-11-10T16:29:14.177Z,11.25
2022-11-10T16:32:00.531Z,11.27
2022-11-10T16:34:47.014Z,11.28
2022-11-10T16:37:35.109Z,11.29
2022-11-10T16:40:24.653Z,11.28
2022-11-10T16:43:16.088Z,11.26
2022-11-10T16:46:05.785Z,11.24
2022-11-10T16:48:56.890Z,11.23
2022-11-10T16:51:48.544Z,11.20
2022-11-10T16:54:35.375Z,11.12
2022-11-10T16:57:21.978Z,11.08
2022-11-10T17:00:09.461Z,11.02
2022-11-10T17:03:06.667Z,10.99
2022-11-10T17:05:53.829Z,11.00
2022-11-10T17:08:41.179Z,11.02
2022-11-10T17:11:27.504Z,11.03
2022-11-10T17:14:14.513Z,11.04
2022-11-10T17:17:01.059Z,11.00
2022-11-10T17:19:48.695Z,10.96
2022-11-10T17:22:37.353Z,10.98
2022-11-10T17:25:26.982Z,11.02
2022-11-10T17:28:15.131Z,11.07
2022-11-10T17:31:03.312Z,11.11
2022-11-10T17:33:50.124Z,11.13
2022-11-10T17:36:36.864Z,11.15
2022-11-10T17:39:23.249Z,11.16
2022-11-10T17:42:13.547Z,11.14
2022-11-10T17:45:00.189Z,11.10
2022-11-10T17:47:48.168Z,11.08
2022-11-10T17:50:36.268Z,11.06
2022-11-10T17:53:26.184Z,11.02
2022-11-10T17:56:13.448Z,10.97
2022-11-10T17:59:00.684Z,10.94
2022-11-10T18:01:47.381Z,10.93
2022-11-10T18:04:34.272Z,10.92
2022-11-10T18:07:20.962Z,10.92
2022-11-10T18:10:11.452Z,10.91
2022-11-10T18:12:57.893Z,10.92
2022-11-10T18:15:45.953Z,10.90
2022-11-10T18:18:32.644Z,10.96
2022-11-10T18:21:18.913Z,11.05
2022-11-10T18:24:06.229Z,11.11
2022-11-10T18:26:52.741Z,11.09
2022-11-10T18:29:39.822Z,11.02
2022-11-10T18:32:26.909Z,10.96
2022-11-10T18:35:13.866Z,10.93
2022-11-10T18:38:00.533Z,10.90
2022-11-10T18:40:46.942Z,10.87
2022-11-10T18:43:34.600Z,10.80
2022-11-10T18:46:21.251Z,10.74
2022-11-10T18:49:07.840Z,10.67
2022-11-10T18:51:55.600Z,10.63
2022-11-10T18:54:42.143Z,10.57
2022-11-10T18:57:28.594Z,10.53
2022-11-10T19:00:16.224Z,10.55
2022-11-10T19:03:05.829Z,10.57
2022-11-10T19:05:58.379Z,10.56
2022-11-10T19:08:45.304Z,10.56
2022-11-10T19:11:33.301Z,10.54
2022-11-10T19:14:19.826Z,10.54
2022-11-10T19:17:10.646Z,10.57
2022-11-10T19:19:57.108Z,10.53
2022-11-10T19:22:43.921Z,10.45
2022-11-10T19:25:30.779Z,10.39
2022-11-10T19:28:17.513Z,10.33
2022-11-10T19:31:07.504Z,10.29
2022-11-10T19:33:56.578Z,10.27
2022-11-10T19:36:43.288Z,10.30
2022-11-10T19:39:29.442Z,10.31
2022-11-10T19:42:15.973Z,10.28
2022-11-10T19:45:02.776Z,10.26
2022-11-10T19:47:49.051Z,10.29
2022-11-10T19:50:35.579Z,10.29
2022-11-10T19:53:23.053Z,10.28
2022-11-10T19:56:15.868Z,10.30
2022-11-10T19:59:02.292Z,10.31
2022-11-10T20:01:48.850Z,10.33
2022-11-10T20:04:55.613Z,10.33
2022-11-10T20:08:04.202Z,10.28
2022-11-10T20:10:53.930Z,10.33
2022-11-10T20:13:40.681Z,10.36
2022-11-10T20:16:27.555Z,10.37
2022-11-10T20:19:14.483Z,10.37
2022-11-10T20:22:00.950Z,10.40
2022-11-10T20:24:51.160Z,10.41
2022-11-10T20:27:38.066Z,10.38
2022-11-10T20:30:25.071Z,10.32
2022-11-10T20:33:12.250Z,10.26
2022-11-10T20:36:20.401Z,10.21
2022-11-10T20:39:07.342Z,10.12
2022-11-10T20:41:53.874Z,10.07
2022-11-10T20:44:40.728Z,10.00
2022-11-10T20:47:28.783Z,9.94
2022-11-10T20:50:19.175Z,9.90
2022-11-10T20:53:08.422Z,9.83
2022-11-10T20:56:00.786Z,9.77
2022-11-10T20:58:47.546Z,9.72
2022-11-10T21:01:35.330Z,9.67
2022-11-10T21:04:23.346Z,9.60
2022-11-10T21:07:10.473Z,9.55
2022-11-10T21:09:57.138Z,9.48
2022-11-10T21:12:49.714Z,9.39
2022-11-10T21:15:39.748Z,9.34
2022-11-10T21:18:29.472Z,9.31
2022-11-10T21:21:21.917Z,9.30
2022-11-10T21:24:09.688Z,9.23
2022-11-10T21:26:57.026Z,9.18
2022-11-10T21:29:43.515Z,9.19
2022-11-10T21:32:29.788Z,9.21
2022-11-10T21:35:16.841Z,9.17
2022-11-10T21:38:04.769Z,9.13
2022-11-10T21:40:51.208Z,9.09
2022-11-10T21:43:38.831Z,9.04
2022-11-10T21:46:25.418Z,9.01
2022-11-10T21:49:11.821Z,9.01
2022-11-10T21:51:58.450Z,9.01
2022-11-10T21:54:45.504Z,9.03
2022-11-10T21:57:32.055Z,9.05
2022-11-10T22:00:18.596Z,9.01
2022-11-10T22:03:09.791Z,8.98
2022-11-10T22:06:03.768Z,8.93
2022-11-10T22:08:55.520Z,8.88
2022-11-10T22:12:00.793Z,8.82
2022-11-10T22:15:06.518Z,8.80
2022-11-10T22:18:11.590Z,8.72
2022-11-10T22:20:58.551Z,8.66
2022-11-10T22:24:03.934Z,8.67
2022-11-10T22:26:50.935Z,8.70
2022-11-10T22:29:37.945Z,8.72
2022-11-10T22:32:24.522Z,8.74
2022-11-10T22:35:31.153Z,8.72
2022-11-10T22:38:17.599Z,8.73
2022-11-10T22:41:23.313Z,8.72
2022-11-10T22:44:14.616Z,8.70
2022-11-10T22:47:01.385Z,8.67
2022-11-10T22:49:47.771Z,8.64
2022-11-10T22:52:34.559Z,8.59
2022-11-10T22:55:21.189Z,8.53
2022-11-10T22:58:07.656Z,8.45
2022-11-10T23:00:54.140Z,8.39
2022-11-10T23:03:43.980Z,8.37
2022-11-10T23:06:31.391Z,8.38
2022-11-10T23:09:18.344Z,8.39
2022-11-10T23:12:05.937Z,8.39
2022-11-10T23:14:53.883Z,8.40
2022-11-10T23:17:40.837Z,8.41
2022-11-10T23:20:27.775Z,8.40
2022-11-10T23:23:14.972Z,8.38
2022-11-10T23:26:08.417Z,8.34
2022-11-10T23:28:55.654Z,8.29
2022-11-10T23:31:42.677Z,8.20
2022-11-10T23:34:29.223Z,8.19
2022-11-10T23:37:15.763Z,8.26
2022-11-10T23:40:05.739Z,8.27
2022-11-10T23:42:55.317Z,8.25
2022-11-10T23:46:05.793Z,8.19
2022-11-10T23:48:50.343Z,8.15
2022-11-10T23:51:37.072Z,8.13
2022-11-10T23:54:23.895Z,8.09
2022-11-10T23:57:10.607Z,7.99
2022-11-10T23:59:57.577Z,7.97
